sensor_id;sensor_type;location;lat;lon;timestamp;pressure;altitude;pressure_sealevel;temperature;humidity
31299;BME280;17927;52.350;13.402;2023-07-08T00:00:18;101682.00;;;23.90;35.63
31299;BME280;17927;52.350;13.402;2023-07-08T00:02:44;101682.66;;;23.85;35.62
31299;BME280;17927;52.350;13.402;2023-07-08T00:05:11;101685.59;;;23.83;35.49
31299;BME280;17927;52.350;13.402;2023-07-08T00:07:38;101686.88;;;23.81;35.88
31299;BME280;17927;52.350;13.402;2023-07-08T00:10:20;101679.22;;;23.76;36.47
31299;BME280;17927;52.350;13.402;2023-07-08T00:12:48;101678.16;;;23.70;36.85
31299;BME280;17927;52.350;13.402;2023-07-08T00:15:14;101675.16;;;23.65;36.80
31299;BME280;17927;52.350;13.402;2023-07-08T00:17:40;101673.22;;;23.59;37.01
31299;BME280;17927;52.350;13.402;2023-07-08T00:22:54;101674.47;;;23.43;37.10
31299;BME280;17927;52.350;13.402;2023-07-08T00:25:19;101675.28;;;23.37;37.66
31299;BME280;17927;52.350;13.402;2023-07-08T00:27:45;101670.81;;;23.29;37.58
31299;BME280;17927;52.350;13.402;2023-07-08T00:30:27;101674.59;;;23.21;38.10
31299;BME280;17927;52.350;13.402;2023-07-08T00:32:53;101668.91;;;22.94;37.22
31299;BME280;17927;52.350;13.402;2023-07-08T00:35:46;101665.13;;;22.95;37.40
31299;BME280;17927;52.350;13.402;2023-07-08T00:38:22;101665.31;;;22.94;37.68
31299;BME280;17927;52.350;13.402;2023-07-08T00:40:58;101666.78;;;22.90;37.65
31299;BME280;17927;52.350;13.402;2023-07-08T00:43:50;101671.63;;;22.88;37.92
31299;BME280;17927;52.350;13.402;2023-07-08T00:46:31;101678.59;;;22.84;37.95
31299;BME280;17927;52.350;13.402;2023-07-08T00:51:35;101677.91;;;22.75;38.12
31299;BME280;17927;52.350;13.402;2023-07-08T00:54:03;101669.19;;;22.71;38.24
31299;BME280;17927;52.350;13.402;2023-07-08T00:56:39;101680.44;;;22.70;39.03
31299;BME280;17927;52.350;13.402;2023-07-08T00:59:10;101674.47;;;22.66;38.26
31299;BME280;17927;52.350;13.402;2023-07-08T01:01:40;101681.22;;;22.63;38.20
31299;BME280;17927;52.350;13.402;2023-07-08T01:04:10;101681.44;;;22.62;38.70
31299;BME280;17927;52.350;13.402;2023-07-08T01:06:39;101679.53;;;22.62;38.22
31299;BME280;17927;52.350;13.402;2023-07-08T01:09:08;101670.59;;;22.60;38.30
31299;BME280;17927;52.350;13.402;2023-07-08T01:11:37;101673.56;;;22.59;38.37
31299;BME280;17927;52.350;13.402;2023-07-08T01:14:05;101672.72;;;22.58;38.67
31299;BME280;17927;52.350;13.402;2023-07-08T01:16:32;101666.75;;;22.55;38.57
31299;BME280;17927;52.350;13.402;2023-07-08T01:18:59;101665.06;;;22.54;38.32
31299;BME280;17927;52.350;13.402;2023-07-08T01:21:39;101673.72;;;22.50;38.50
31299;BME280;17927;52.350;13.402;2023-07-08T01:24:07;101663.13;;;22.47;38.31
31299;BME280;17927;52.350;13.402;2023-07-08T01:26:36;101663.13;;;22.47;38.57
31299;BME280;17927;52.350;13.402;2023-07-08T01:29:03;101666.06;;;22.46;38.46
31299;BME280;17927;52.350;13.402;2023-07-08T01:31:28;101659.72;;;22.45;38.43
31299;BME280;17927;52.350;13.402;2023-07-08T01:33:54;101659.06;;;22.43;38.37
31299;BME280;17927;52.350;13.402;2023-07-08T01:36:19;101655.63;;;22.41;38.84
31299;BME280;17927;52.350;13.402;2023-07-08T01:38:45;101662.19;;;22.40;38.42
31299;BME280;17927;52.350;13.402;2023-07-08T01:41:12;101652.44;;;22.38;38.71
31299;BME280;17927;52.350;13.402;2023-07-08T01:43:38;101651.13;;;22.33;39.00
31299;BME280;17927;52.350;13.402;2023-07-08T01:46:04;101653.22;;;22.31;38.87
31299;BME280;17927;52.350;13.402;2023-07-08T01:48:38;101650.69;;;22.30;38.76
31299;BME280;17927;52.350;13.402;2023-07-08T01:51:05;101642.59;;;22.28;38.90
31299;BME280;17927;52.350;13.402;2023-07-08T01:53:33;101650.22;;;22.26;38.97
31299;BME280;17927;52.350;13.402;2023-07-08T01:55:59;101647.00;;;22.23;39.05
31299;BME280;17927;52.350;13.402;2023-07-08T01:58:24;101649.09;;;22.20;39.39
31299;BME280;17927;52.350;13.402;2023-07-08T02:00:50;101648.66;;;22.17;39.10
31299;BME280;17927;52.350;13.402;2023-07-08T02:03:15;101647.16;;;22.14;39.18
31299;BME280;17927;52.350;13.402;2023-07-08T02:05:41;101647.56;;;22.11;39.46
31299;BME280;17927;52.350;13.402;2023-07-08T02:08:06;101650.03;;;22.06;39.54
31299;BME280;17927;52.350;13.402;2023-07-08T02:10:31;101661.47;;;22.03;39.53
31299;BME280;17927;52.350;13.402;2023-07-08T02:12:56;101650.19;;;21.98;39.64
31299;BME280;17927;52.350;13.402;2023-07-08T02:15:22;101654.19;;;21.95;40.19
31299;BME280;17927;52.350;13.402;2023-07-08T02:17:47;101655.81;;;21.89;40.45
31299;BME280;17927;52.350;13.402;2023-07-08T02:20:12;101659.81;;;21.87;40.17
31299;BME280;17927;52.350;13.402;2023-07-08T02:22:38;101656.78;;;21.82;40.42
31299;BME280;17927;52.350;13.402;2023-07-08T02:25:03;101654.63;;;21.77;40.59
31299;BME280;17927;52.350;13.402;2023-07-08T02:27:28;101653.13;;;21.74;40.44
31299;BME280;17927;52.350;13.402;2023-07-08T02:29:54;101654.38;;;21.72;40.66
31299;BME280;17927;52.350;13.402;2023-07-08T02:32:19;101654.13;;;21.67;41.00
31299;BME280;17927;52.350;13.402;2023-07-08T02:34:44;101657.47;;;21.62;41.16
31299;BME280;17927;52.350;13.402;2023-07-08T02:37:09;101654.06;;;21.60;41.45
31299;BME280;17927;52.350;13.402;2023-07-08T02:39:35;101657.81;;;21.59;41.56
31299;BME280;17927;52.350;13.402;2023-07-08T02:42:00;101657.97;;;21.57;41.76
31299;BME280;17927;52.350;13.402;2023-07-08T02:44:26;101656.31;;;21.56;41.44
31299;BME280;17927;52.350;13.402;2023-07-08T02:46:51;101651.84;;;21.55;41.65
31299;BME280;17927;52.350;13.402;2023-07-08T02:49:16;101653.06;;;21.53;41.59
31299;BME280;17927;52.350;13.402;2023-07-08T02:51:42;101655.56;;;21.48;41.69
31299;BME280;17927;52.350;13.402;2023-07-08T02:54:07;101653.38;;;21.43;42.03
31299;BME280;17927;52.350;13.402;2023-07-08T02:56:32;101650.38;;;21.38;42.13
31299;BME280;17927;52.350;13.402;2023-07-08T02:58:57;101661.38;;;21.38;41.99
31299;BME280;17927;52.350;13.402;2023-07-08T03:01:23;101652.66;;;21.34;42.32
31299;BME280;17927;52.350;13.402;2023-07-08T03:03:48;101647.56;;;21.31;42.38
31299;BME280;17927;52.350;13.402;2023-07-08T03:06:14;101649.66;;;21.29;42.16
31299;BME280;17927;52.350;13.402;2023-07-08T03:08:40;101646.03;;;21.28;42.39
31299;BME280;17927;52.350;13.402;2023-07-08T03:11:06;101643.50;;;21.27;42.30
31299;BME280;17927;52.350;13.402;2023-07-08T03:13:33;101648.31;;;21.25;42.78
31299;BME280;17927;52.350;13.402;2023-07-08T03:16:00;101653.34;;;21.21;42.52
31299;BME280;17927;52.350;13.402;2023-07-08T03:18:26;101650.31;;;21.16;42.60
31299;BME280;17927;52.350;13.402;2023-07-08T03:20:53;101646.44;;;21.10;42.98
31299;BME280;17927;52.350;13.402;2023-07-08T03:23:20;101641.34;;;21.07;42.69
31299;BME280;17927;52.350;13.402;2023-07-08T03:25:45;101641.53;;;21.06;43.21
31299;BME280;17927;52.350;13.402;2023-07-08T03:28:11;101635.19;;;21.05;42.94
31299;BME280;17927;52.350;13.402;2023-07-08T03:30:40;101636.03;;;21.06;43.18
31299;BME280;17927;52.350;13.402;2023-07-08T03:33:06;101635.84;;;21.07;43.61
31299;BME280;17927;52.350;13.402;2023-07-08T03:35:31;101641.53;;;21.06;43.76
31299;BME280;17927;52.350;13.402;2023-07-08T03:37:56;101640.50;;;21.07;43.55
31299;BME280;17927;52.350;13.402;2023-07-08T03:40:22;101638.59;;;21.07;43.55
31299;BME280;17927;52.350;13.402;2023-07-08T03:42:47;101643.91;;;21.09;43.54
31299;BME280;17927;52.350;13.402;2023-07-08T03:45:12;101641.78;;;21.11;43.99
31299;BME280;17927;52.350;13.402;2023-07-08T03:47:37;101648.63;;;21.15;43.67
31299;BME280;17927;52.350;13.402;2023-07-08T03:50:03;101646.31;;;21.19;43.57
31299;BME280;17927;52.350;13.402;2023-07-08T03:52:28;101640.75;;;21.27;43.43
31299;BME280;17927;52.350;13.402;2023-07-08T03:54:54;101637.63;;;21.30;43.81
31299;BME280;17927;52.350;13.402;2023-07-08T03:57:19;101646.97;;;21.36;43.75
31299;BME280;17927;52.350;13.402;2023-07-08T03:59:44;101651.22;;;21.38;43.82
31299;BME280;17927;52.350;13.402;2023-07-08T04:02:10;101645.81;;;21.45;43.87
31299;BME280;17927;52.350;13.402;2023-07-08T04:04:36;101644.16;;;21.51;43.78
31299;BME280;17927;52.350;13.402;2023-07-08T04:07:05;101644.25;;;21.57;43.52
31299;BME280;17927;52.350;13.402;2023-07-08T04:09:30;101636.13;;;21.64;43.46
31299;BME280;17927;52.350;13.402;2023-07-08T04:11:56;101644.22;;;21.72;43.39
31299;BME280;17927;52.350;13.402;2023-07-08T04:14:22;101641.53;;;21.79;43.51
31299;BME280;17927;52.350;13.402;2023-07-08T04:19:16;101639.56;;;21.95;43.58
31299;BME280;17927;52.350;13.402;2023-07-08T04:21:43;101642.84;;;22.05;43.03
31299;BME280;17927;52.350;13.402;2023-07-08T04:24:10;101648.22;;;22.13;43.13
31299;BME280;17927;52.350;13.402;2023-07-08T04:26:36;101642.56;;;22.21;42.71
31299;BME280;17927;52.350;13.402;2023-07-08T04:29:02;101645.19;;;22.30;42.92
31299;BME280;17927;52.350;13.402;2023-07-08T04:31:27;101641.22;;;22.39;42.59
31299;BME280;17927;52.350;13.402;2023-07-08T04:33:52;101651.25;;;22.47;42.59
31299;BME280;17927;52.350;13.402;2023-07-08T04:36:18;101640.94;;;22.56;42.96
31299;BME280;17927;52.350;13.402;2023-07-08T04:38:46;101643.53;;;22.64;42.69
31299;BME280;17927;52.350;13.402;2023-07-08T04:41:12;101652.28;;;22.74;42.59
31299;BME280;17927;52.350;13.402;2023-07-08T04:43:37;101654.03;;;22.82;42.76
31299;BME280;17927;52.350;13.402;2023-07-08T04:46:30;101652.59;;;22.93;42.62
31299;BME280;17927;52.350;13.402;2023-07-08T04:48:55;101648.84;;;23.01;42.80
31299;BME280;17927;52.350;13.402;2023-07-08T04:51:21;101653.09;;;23.10;42.62
31299;BME280;17927;52.350;13.402;2023-07-08T04:53:46;101653.59;;;23.20;42.31
31299;BME280;17927;52.350;13.402;2023-07-08T04:56:13;101651.31;;;23.31;42.25
31299;BME280;17927;52.350;13.402;2023-07-08T04:58:38;101656.22;;;23.42;41.81
31299;BME280;17927;52.350;13.402;2023-07-08T05:01:03;101655.84;;;23.52;41.92
31299;BME280;17927;52.350;13.402;2023-07-08T05:03:29;101651.81;;;23.61;41.74
31299;BME280;17927;52.350;13.402;2023-07-08T05:05:54;101642.31;;;23.70;41.62
31299;BME280;17927;52.350;13.402;2023-07-08T05:08:19;101644.84;;;23.79;41.62
31299;BME280;17927;52.350;13.402;2023-07-08T05:10:44;101645.50;;;23.87;41.82
31299;BME280;17927;52.350;13.402;2023-07-08T05:13:09;101648.94;;;23.96;41.38
31299;BME280;17927;52.350;13.402;2023-07-08T05:15:35;101641.94;;;24.07;41.25
31299;BME280;17927;52.350;13.402;2023-07-08T05:18:01;101646.19;;;24.16;41.19
31299;BME280;17927;52.350;13.402;2023-07-08T05:20:26;101644.94;;;24.26;41.04
31299;BME280;17927;52.350;13.402;2023-07-08T05:22:51;101636.41;;;24.34;40.63
31299;BME280;17927;52.350;13.402;2023-07-08T05:25:18;101648.09;;;24.43;40.45
31299;BME280;17927;52.350;13.402;2023-07-08T05:27:44;101649.59;;;24.52;41.15
31299;BME280;17927;52.350;13.402;2023-07-08T05:30:14;101652.75;;;24.62;40.90
31299;BME280;17927;52.350;13.402;2023-07-08T05:32:40;101648.94;;;24.70;40.31
31299;BME280;17927;52.350;13.402;2023-07-08T05:35:05;101652.94;;;24.81;40.53
31299;BME280;17927;52.350;13.402;2023-07-08T05:37:31;101653.97;;;24.93;40.15
31299;BME280;17927;52.350;13.402;2023-07-08T05:39:56;101649.88;;;25.03;40.20
31299;BME280;17927;52.350;13.402;2023-07-08T05:42:22;101650.28;;;25.13;40.26
31299;BME280;17927;52.350;13.402;2023-07-08T05:44:48;101645.97;;;25.24;40.07
31299;BME280;17927;52.350;13.402;2023-07-08T05:47:14;101654.66;;;25.34;40.37
31299;BME280;17927;52.350;13.402;2023-07-08T05:49:40;101649.53;;;25.45;40.17
31299;BME280;17927;52.350;13.402;2023-07-08T05:52:05;101651.81;;;25.54;40.29
31299;BME280;17927;52.350;13.402;2023-07-08T05:54:40;101662.59;;;25.63;39.86
31299;BME280;17927;52.350;13.402;2023-07-08T05:57:07;101659.16;;;25.74;40.09
31299;BME280;17927;52.350;13.402;2023-07-08T05:59:34;101660.31;;;25.85;40.01
31299;BME280;17927;52.350;13.402;2023-07-08T06:02:00;101658.38;;;25.92;39.88
31299;BME280;17927;52.350;13.402;2023-07-08T06:04:26;101667.25;;;26.01;39.56
31299;BME280;17927;52.350;13.402;2023-07-08T06:06:51;101670.78;;;26.08;38.84
31299;BME280;17927;52.350;13.402;2023-07-08T06:09:17;101676.94;;;26.17;39.15
31299;BME280;17927;52.350;13.402;2023-07-08T06:11:42;101677.75;;;26.24;39.09
31299;BME280;17927;52.350;13.402;2023-07-08T06:14:07;101671.91;;;26.33;39.13
31299;BME280;17927;52.350;13.402;2023-07-08T06:16:33;101665.84;;;26.42;39.14
31299;BME280;17927;52.350;13.402;2023-07-08T06:19:00;101670.06;;;26.52;39.00
31299;BME280;17927;52.350;13.402;2023-07-08T06:21:25;101665.06;;;26.60;39.09
31299;BME280;17927;52.350;13.402;2023-07-08T06:23:50;101659.22;;;26.69;38.94
31299;BME280;17927;52.350;13.402;2023-07-08T06:26:15;101670.00;;;26.77;38.88
31299;BME280;17927;52.350;13.402;2023-07-08T06:28:41;101675.03;;;26.87;38.68
31299;BME280;17927;52.350;13.402;2023-07-08T06:31:06;101674.50;;;26.97;38.59
31299;BME280;17927;52.350;13.402;2023-07-08T06:33:31;101666.72;;;27.05;38.50
31299;BME280;17927;52.350;13.402;2023-07-08T06:35:56;101668.31;;;27.13;38.30
31299;BME280;17927;52.350;13.402;2023-07-08T06:38:22;101667.56;;;27.25;38.01
31299;BME280;17927;52.350;13.402;2023-07-08T06:40:47;101665.91;;;27.35;37.60
31299;BME280;17927;52.350;13.402;2023-07-08T06:43:12;101668.16;;;27.45;37.53
31299;BME280;17927;52.350;13.402;2023-07-08T06:45:37;101662.06;;;27.55;37.49
31299;BME280;17927;52.350;13.402;2023-07-08T06:48:03;101657.03;;;27.64;37.51
31299;BME280;17927;52.350;13.402;2023-07-08T06:50:28;101658.97;;;27.75;37.45
31299;BME280;17927;52.350;13.402;2023-07-08T06:52:53;101661.19;;;27.85;37.34
31299;BME280;17927;52.350;13.402;2023-07-08T06:55:19;101660.84;;;27.93;37.17
31299;BME280;17927;52.350;13.402;2023-07-08T06:57:44;101658.06;;;28.05;37.24
31299;BME280;17927;52.350;13.402;2023-07-08T07:00:11;101652.22;;;28.14;36.63
31299;BME280;17927;52.350;13.402;2023-07-08T07:02:37;101648.84;;;28.23;36.58
31299;BME280;17927;52.350;13.402;2023-07-08T07:05:03;101659.94;;;28.35;36.32
31299;BME280;17927;52.350;13.402;2023-07-08T07:07:29;101654.06;;;28.44;36.37
31299;BME280;17927;52.350;13.402;2023-07-08T07:09:55;101659.47;;;28.50;36.58
31299;BME280;17927;52.350;13.402;2023-07-08T07:12:20;101659.09;;;28.59;35.97
31299;BME280;17927;52.350;13.402;2023-07-08T07:14:46;101655.97;;;28.67;35.87
31299;BME280;17927;52.350;13.402;2023-07-08T07:17:11;101669.50;;;28.75;35.71
31299;BME280;17927;52.350;13.402;2023-07-08T07:19:36;101666.38;;;28.83;35.91
31299;BME280;17927;52.350;13.402;2023-07-08T07:22:02;101671.53;;;28.92;35.58
31299;BME280;17927;52.350;13.402;2023-07-08T07:24:27;101662.84;;;29.00;35.72
31299;BME280;17927;52.350;13.402;2023-07-08T07:26:53;101653.28;;;29.08;35.72
31299;BME280;17927;52.350;13.402;2023-07-08T07:29:18;101656.75;;;29.15;35.06
31299;BME280;17927;52.350;13.402;2023-07-08T07:31:43;101653.59;;;29.23;35.45
31299;BME280;17927;52.350;13.402;2023-07-08T07:34:10;101659.59;;;29.32;35.11
31299;BME280;17927;52.350;13.402;2023-07-08T07:36:37;101660.31;;;29.39;34.72
31299;BME280;17927;52.350;13.402;2023-07-08T07:39:02;101654.59;;;29.46;34.76
31299;BME280;17927;52.350;13.402;2023-07-08T07:41:27;101645.00;;;29.54;34.67
31299;BME280;17927;52.350;13.402;2023-07-08T07:43:53;101647.63;;;29.60;34.24
31299;BME280;17927;52.350;13.402;2023-07-08T07:46:18;101655.34;;;29.70;34.21
31299;BME280;17927;52.350;13.402;2023-07-08T07:48:43;101659.03;;;29.76;33.64
31299;BME280;17927;52.350;13.402;2023-07-08T07:51:09;101654.19;;;29.83;33.58
31299;BME280;17927;52.350;13.402;2023-07-08T07:53:36;101653.75;;;29.91;33.52
31299;BME280;17927;52.350;13.402;2023-07-08T07:56:02;101652.53;;;29.99;33.17
31299;BME280;17927;52.350;13.402;2023-07-08T07:58:29;101645.94;;;30.05;32.93
31299;BME280;17927;52.350;13.402;2023-07-08T08:00:54;101633.81;;;30.12;32.75
31299;BME280;17927;52.350;13.402;2023-07-08T08:03:20;101643.91;;;30.18;33.01
31299;BME280;17927;52.350;13.402;2023-07-08T08:05:45;101646.28;;;30.26;33.28
31299;BME280;17927;52.350;13.402;2023-07-08T08:08:10;101650.81;;;30.32;33.42
31299;BME280;17927;52.350;13.402;2023-07-08T08:10:36;101653.44;;;30.39;33.14
31299;BME280;17927;52.350;13.402;2023-07-08T08:13:02;101651.31;;;30.46;32.25
31299;BME280;17927;52.350;13.402;2023-07-08T08:15:27;101653.06;;;30.52;31.98
31299;BME280;17927;52.350;13.402;2023-07-08T08:17:53;101660.44;;;30.59;31.98
31299;BME280;17927;52.350;13.402;2023-07-08T08:20:19;101646.31;;;30.65;31.57
31299;BME280;17927;52.350;13.402;2023-07-08T08:22:45;101653.69;;;30.72;31.57
31299;BME280;17927;52.350;13.402;2023-07-08T08:25:11;101659.31;;;30.77;31.36
31299;BME280;17927;52.350;13.402;2023-07-08T08:27:37;101649.31;;;30.81;31.67
31299;BME280;17927;52.350;13.402;2023-07-08T08:30:05;101652.19;;;30.86;31.29
31299;BME280;17927;52.350;13.402;2023-07-08T08:32:30;101655.88;;;30.92;31.19
31299;BME280;17927;52.350;13.402;2023-07-08T08:34:55;101654.00;;;30.97;31.52
31299;BME280;17927;52.350;13.402;2023-07-08T08:37:21;101650.44;;;31.02;31.33
31299;BME280;17927;52.350;13.402;2023-07-08T08:39:46;101651.59;;;31.06;32.02
31299;BME280;17927;52.350;13.402;2023-07-08T08:42:20;101655.28;;;31.12;30.89
31299;BME280;17927;52.350;13.402;2023-07-08T08:44:47;101655.41;;;31.17;31.77
31299;BME280;17927;52.350;13.402;2023-07-08T08:47:33;101646.81;;;31.24;31.29
31299;BME280;17927;52.350;13.402;2023-07-08T08:52:55;101652.19;;;31.31;30.80
31299;BME280;17927;52.350;13.402;2023-07-08T08:55:23;101657.31;;;31.39;30.68
31299;BME280;17927;52.350;13.402;2023-07-08T08:58:30;101646.72;;;31.41;30.64
31299;BME280;17927;52.350;13.402;2023-07-08T09:01:00;101650.97;;;31.43;29.83
31299;BME280;17927;52.350;13.402;2023-07-08T09:06:13;101656.13;;;31.57;29.61
31299;BME280;17927;52.350;13.402;2023-07-08T09:08:39;101656.50;;;31.66;28.97
31299;BME280;17927;52.350;13.402;2023-07-08T09:11:33;101651.53;;;31.73;28.93
31299;BME280;17927;52.350;13.402;2023-07-08T09:14:01;101644.63;;;31.76;28.89
31299;BME280;17927;52.350;13.402;2023-07-08T09:16:39;101642.41;;;31.83;28.48
31299;BME280;17927;52.350;13.402;2023-07-08T09:19:23;101641.63;;;31.87;28.78
31299;BME280;17927;52.350;13.402;2023-07-08T09:21:57;101643.63;;;31.92;28.55
31299;BME280;17927;52.350;13.402;2023-07-08T09:24:32;101646.22;;;31.99;28.47
31299;BME280;17927;52.350;13.402;2023-07-08T09:27:00;101656.00;;;32.01;28.71
31299;BME280;17927;52.350;13.402;2023-07-08T09:29:26;101648.78;;;32.06;27.77
31299;BME280;17927;52.350;13.402;2023-07-08T09:31:52;101642.38;;;32.10;28.25
31299;BME280;17927;52.350;13.402;2023-07-08T09:34:22;101639.06;;;32.13;27.52
31299;BME280;17927;52.350;13.402;2023-07-08T09:36:49;101644.66;;;32.18;27.88
31299;BME280;17927;52.350;13.402;2023-07-08T09:39:18;101637.44;;;32.23;27.83
31299;BME280;17927;52.350;13.402;2023-07-08T09:41:45;101640.31;;;32.28;27.80
31299;BME280;17927;52.350;13.402;2023-07-08T09:44:28;101638.63;;;32.32;27.29
31299;BME280;17927;52.350;13.402;2023-07-08T09:46:58;101632.50;;;32.35;27.18
31299;BME280;17927;52.350;13.402;2023-07-08T09:49:28;101634.50;;;32.40;26.78
31299;BME280;17927;52.350;13.402;2023-07-08T09:51:55;101640.97;;;32.45;27.13
31299;BME280;17927;52.350;13.402;2023-07-08T09:54:22;101634.56;;;32.50;26.98
31299;BME280;17927;52.350;13.402;2023-07-08T09:57:02;101631.25;;;32.53;26.75
31299;BME280;17927;52.350;13.402;2023-07-08T09:59:30;101635.97;;;32.53;26.40
31299;BME280;17927;52.350;13.402;2023-07-08T10:02:00;101624.53;;;32.54;25.57
31299;BME280;17927;52.350;13.402;2023-07-08T10:04:25;101637.97;;;32.57;25.69
31299;BME280;17927;52.350;13.402;2023-07-08T10:06:50;101635.19;;;32.62;25.64
31299;BME280;17927;52.350;13.402;2023-07-08T10:09:24;101629.91;;;32.66;25.24
31299;BME280;17927;52.350;13.402;2023-07-08T10:12:01;101629.38;;;32.69;26.52
31299;BME280;17927;52.350;13.402;2023-07-08T10:14:36;101632.72;;;32.71;25.70
31299;BME280;17927;52.350;13.402;2023-07-08T10:17:02;101630.50;;;32.73;25.34
31299;BME280;17927;52.350;13.402;2023-07-08T10:19:28;101629.41;;;32.74;26.11
31299;BME280;17927;52.350;13.402;2023-07-08T10:22:10;101621.28;;;32.78;26.69
31299;BME280;17927;52.350;13.402;2023-07-08T10:25:03;101626.59;;;32.79;26.17
31299;BME280;17927;52.350;13.402;2023-07-08T10:27:40;101625.50;;;32.80;26.20
31299;BME280;17927;52.350;13.402;2023-07-08T10:30:23;101621.06;;;32.85;25.51
31299;BME280;17927;52.350;13.402;2023-07-08T10:33:03;101618.00;;;32.86;24.49
31299;BME280;17927;52.350;13.402;2023-07-08T10:35:36;101613.53;;;32.90;24.86
31299;BME280;17927;52.350;13.402;2023-07-08T10:38:30;101615.50;;;32.95;24.94
31299;BME280;17927;52.350;13.402;2023-07-08T10:41:04;101622.53;;;32.98;25.31
31299;BME280;17927;52.350;13.402;2023-07-08T10:43:44;101618.63;;;33.04;25.38
31299;BME280;17927;52.350;13.402;2023-07-08T10:46:26;101609.97;;;33.10;25.16
31299;BME280;17927;52.350;13.402;2023-07-08T10:49:17;101613.91;;;33.15;24.55
31299;BME280;17927;52.350;13.402;2023-07-08T10:52:16;101618.94;;;33.18;25.33
31299;BME280;17927;52.350;13.402;2023-07-08T10:54:50;101609.72;;;33.22;25.36
31299;BME280;17927;52.350;13.402;2023-07-08T11:00:34;101609.78;;;33.38;25.01
31299;BME280;17927;52.350;13.402;2023-07-08T11:05:52;101610.94;;;33.47;24.62
31299;BME280;17927;52.350;13.402;2023-07-08T11:08:24;101605.31;;;33.52;24.60
31299;BME280;17927;52.350;13.402;2023-07-08T11:11:06;101608.13;;;33.58;25.43
31299;BME280;17927;52.350;13.402;2023-07-08T11:13:35;101614.00;;;33.61;24.39
31299;BME280;17927;52.350;13.402;2023-07-08T11:16:05;101610.13;;;33.67;24.43
31299;BME280;17927;52.350;13.402;2023-07-08T11:18:40;101604.22;;;33.74;24.16
31299;BME280;17927;52.350;13.402;2023-07-08T11:21:19;101605.88;;;33.80;24.99
31299;BME280;17927;52.350;13.402;2023-07-08T11:23:50;101599.47;;;33.85;24.79
31299;BME280;17927;52.350;13.402;2023-07-08T11:26:48;101590.81;;;33.92;24.14
31299;BME280;17927;52.350;13.402;2023-07-08T11:29:25;101597.25;;;33.97;24.13
31299;BME280;17927;52.350;13.402;2023-07-08T11:31:54;101592.19;;;34.05;23.96
31299;BME280;17927;52.350;13.402;2023-07-08T11:34:20;101586.28;;;34.11;23.66
31299;BME280;17927;52.350;13.402;2023-07-08T11:36:48;101583.75;;;34.20;23.46
31299;BME280;17927;52.350;13.402;2023-07-08T11:39:40;101583.44;;;34.27;23.23
31299;BME280;17927;52.350;13.402;2023-07-08T11:44:58;101573.34;;;34.36;23.83
31299;BME280;17927;52.350;13.402;2023-07-08T11:47:39;101578.09;;;34.41;23.56
31299;BME280;17927;52.350;13.402;2023-07-08T11:50:18;101564.09;;;34.46;23.23
31299;BME280;17927;52.350;13.402;2023-07-08T11:53:06;101570.78;;;34.50;24.31
31299;BME280;17927;52.350;13.402;2023-07-08T11:55:37;101574.72;;;34.54;23.78
31299;BME280;17927;52.350;13.402;2023-07-08T11:58:08;101564.84;;;34.62;23.96
31299;BME280;17927;52.350;13.402;2023-07-08T12:00:58;101565.13;;;34.66;23.37
31299;BME280;17927;52.350;13.402;2023-07-08T12:03:34;101564.28;;;34.70;22.96
31299;BME280;17927;52.350;13.402;2023-07-08T12:05:59;101560.88;;;34.73;23.58
31299;BME280;17927;52.350;13.402;2023-07-08T12:08:34;101559.44;;;34.81;22.65
31299;BME280;17927;52.350;13.402;2023-07-08T12:11:02;101564.19;;;34.86;22.68
31299;BME280;17927;52.350;13.402;2023-07-08T12:13:28;101553.50;;;34.93;23.06
31299;BME280;17927;52.350;13.402;2023-07-08T12:15:53;101558.81;;;35.00;22.78
31299;BME280;17927;52.350;13.402;2023-07-08T12:20:56;101553.94;;;35.16;22.29
31299;BME280;17927;52.350;13.402;2023-07-08T12:23:23;101555.31;;;35.24;22.42
31299;BME280;17927;52.350;13.402;2023-07-08T12:25:50;101552.41;;;35.34;23.07
31299;BME280;17927;52.350;13.402;2023-07-08T12:28:16;101541.69;;;35.41;22.64
31299;BME280;17927;52.350;13.402;2023-07-08T12:30:43;101541.09;;;35.49;22.93
31299;BME280;17927;52.350;13.402;2023-07-08T12:33:12;101539.56;;;35.62;23.11
31299;BME280;17927;52.350;13.402;2023-07-08T12:35:39;101543.38;;;35.77;24.14
31299;BME280;17927;52.350;13.402;2023-07-08T12:38:23;101534.94;;;36.06;22.92
31299;BME280;17927;52.350;13.402;2023-07-08T12:40:52;101542.69;;;36.44;22.95
31299;BME280;17927;52.350;13.402;2023-07-08T12:43:17;101537.88;;;36.88;22.07
31299;BME280;17927;52.350;13.402;2023-07-08T12:45:43;101531.78;;;37.38;22.08
31299;BME280;17927;52.350;13.402;2023-07-08T12:48:08;101526.16;;;37.90;21.74
31299;BME280;17927;52.350;13.402;2023-07-08T12:50:34;101527.94;;;38.42;21.11
31299;BME280;17927;52.350;13.402;2023-07-08T12:52:59;101535.81;;;38.96;20.53
31299;BME280;17927;52.350;13.402;2023-07-08T12:55:28;101526.09;;;39.48;20.09
31299;BME280;17927;52.350;13.402;2023-07-08T12:57:54;101533.22;;;39.99;19.23
31299;BME280;17927;52.350;13.402;2023-07-08T13:00:31;101522.28;;;40.56;19.32
31299;BME280;17927;52.350;13.402;2023-07-08T13:03:00;101525.84;;;41.05;18.22
31299;BME280;17927;52.350;13.402;2023-07-08T13:05:27;101528.50;;;41.54;18.39
31299;BME280;17927;52.350;13.402;2023-07-08T13:07:52;101530.69;;;42.05;18.15
31299;BME280;17927;52.350;13.402;2023-07-08T13:10:20;101538.94;;;42.58;18.29
31299;BME280;17927;52.350;13.402;2023-07-08T13:12:48;101524.09;;;43.03;16.70